Airfield :
LOGIN :

Register | Disclaimer

   EN    FR    IT 

 










Legend :    VFR   Marginal VFR   IFR   Intensive IFR   Very Intensive IFR
Visi :
Ceiling :
>= 8 km
>= 3000ft
5 to 8 km
1000 to 3000 ft
1500m to 5 km
500 to 1000 ft
800 to 1500m
200 to 500 ft
< 800m
< 200 ft
Symbols :   Thunderstorms  Fog  Heavy snow  Heavy precipitations  Wind > 20 kt
SIGMETs :     Misc.  Thunderstorms  Icing  Turbulence  Mountain Waves  Volcanic Ashes






- Airport Elevation : 20 ft
- IATA code : TIV


LYTV - Tivat - Montenegro

CURRENT METAR :
  • 271530Z VRB02KT 9999 FEW060 23/16 Q1016 NOSIG

EXPIRED METARs :
  • 271500Z VRB02KT 9999 FEW050TCU 23/16 Q1016 NOSIG
  • 271430Z VRB02KT 9999 FEW040TCU 23/16 Q1016 NOSIG
  • 271400Z VRB02KT 9999 SCT040 24/15 Q1016 NOSIG
  • 271330Z 17003KT 130V220 9999 SCT040 23/14 Q1017 NOSIG
  • 271300Z 22005KT 130V300 9999 SCT040 24/15 Q1017 NOSIG
  • 271230Z 22005G18KT 9999 SCT040 24/15 Q1017 NOSIG
  • 271200Z 20006KT 110V270 9999 FEW040 24/17 Q1017 NOSIG
  • 271130Z 20003KT 140V260 9999 FEW040 23/16 Q1017 NOSIG
  • 271100Z 20006KT 140V260 9999 FEW036 24/17 Q1017 NOSIG

TAF TAF LYTV
Valid from the 27 at 12:00 until the 28 at 12:00 UTC


271100Z 2712/2812 23007KT 9999 SCT033 TX25/2713Z TN11/2803Z
PROB30
TEMPO 2712/2718 5000 TSRA FEW030CB SCT040



MET'MAP, your aeronautical weather chart ! - Copyright ORBIFLY December 2007 - Disclaimer

ORBIFLY MET'MAP TEAM :

Programming & Development : Alexandra Zaïnal
Original concept : Baudouin d'Aumeries
Technical & hardware support : Manuel Goepfert
Assistance : Marc-Olivier Méhu




SOURCES & CREDITS :

   NOAA